sensor_id;sensor_type;location;lat;lon;timestamp;pressure;altitude;pressure_sealevel;temperature;humidity
39491;BME280;25175;50.140;18.990;2023-04-27T00:02:24;98656.53;;;5.71;51.81
39491;BME280;25175;50.140;18.990;2023-04-27T00:05:30;98664.16;;;5.72;51.48
39491;BME280;25175;50.140;18.990;2023-04-27T00:08:45;98665.78;;;5.73;51.27
39491;BME280;25175;50.140;18.990;2023-04-27T00:11:51;98656.19;;;5.74;51.53
39491;BME280;25175;50.140;18.990;2023-04-27T00:14:57;98645.59;;;5.75;51.78
39491;BME280;25175;50.140;18.990;2023-04-27T00:18:13;98643.81;;;5.76;51.55
39491;BME280;25175;50.140;18.990;2023-04-27T00:21:21;98655.84;;;5.77;51.71
39491;BME280;25175;50.140;18.990;2023-04-27T00:24:29;98657.81;;;5.75;52.25
39491;BME280;25175;50.140;18.990;2023-04-27T00:27:35;98639.13;;;5.63;52.34
39491;BME280;25175;50.140;18.990;2023-04-27T00:30:45;98650.16;;;5.73;51.41
39491;BME280;25175;50.140;18.990;2023-04-27T00:33:51;98650.34;;;5.72;51.62
39491;BME280;25175;50.140;18.990;2023-04-27T00:36:56;98651.31;;;5.71;51.79
39491;BME280;25175;50.140;18.990;2023-04-27T00:40:07;98658.50;;;5.69;50.99
39491;BME280;25175;50.140;18.990;2023-04-27T00:43:12;98650.03;;;5.67;50.93
39491;BME280;25175;50.140;18.990;2023-04-27T00:46:19;98652.00;;;5.65;51.11
39491;BME280;25175;50.140;18.990;2023-04-27T00:49:25;98641.50;;;5.50;51.06
39491;BME280;25175;50.140;18.990;2023-04-27T00:52:32;98658.56;;;5.53;51.33
39491;BME280;25175;50.140;18.990;2023-04-27T00:55:42;98661.50;;;5.50;51.55
39491;BME280;25175;50.140;18.990;2023-04-27T00:58:51;98663.81;;;5.45;52.40
39491;BME280;25175;50.140;18.990;2023-04-27T01:01:58;98345.53;;;3.48;52.63
39491;BME280;25175;50.140;18.990;2023-04-27T01:05:05;98656.50;;;5.40;52.33
39491;BME280;25175;50.140;18.990;2023-04-27T01:08:10;98651.16;;;5.42;52.02
39491;BME280;25175;50.140;18.990;2023-04-27T01:11:19;98646.78;;;5.34;52.19
39491;BME280;25175;50.140;18.990;2023-04-27T01:14:24;98652.13;;;5.41;52.25
39491;BME280;25175;50.140;18.990;2023-04-27T01:17:30;98655.13;;;5.30;52.29
39491;BME280;25175;50.140;18.990;2023-04-27T01:20:35;98660.63;;;5.35;52.77
39491;BME280;25175;50.140;18.990;2023-04-27T01:23:43;98640.34;;;5.22;52.63
39491;BME280;25175;50.140;18.990;2023-04-27T01:26:48;98672.66;;;5.28;52.37
39491;BME280;25175;50.140;18.990;2023-04-27T01:30:00;98668.81;;;5.24;52.17
39491;BME280;25175;50.140;18.990;2023-04-27T01:33:06;98673.88;;;5.17;52.17
39491;BME280;25175;50.140;18.990;2023-04-27T01:36:12;98665.13;;;5.10;52.29
39491;BME280;25175;50.140;18.990;2023-04-27T01:39:25;98640.69;;;4.73;52.08
39491;BME280;25175;50.140;18.990;2023-04-27T01:42:31;98672.94;;;5.02;52.70
39491;BME280;25175;50.140;18.990;2023-04-27T01:45:35;98674.44;;;4.97;52.35
39491;BME280;25175;50.140;18.990;2023-04-27T01:48:42;98667.94;;;4.93;52.30
39491;BME280;25175;50.140;18.990;2023-04-27T01:51:47;98669.25;;;4.89;52.86
39491;BME280;25175;50.140;18.990;2023-04-27T01:54:55;98676.41;;;4.87;52.85
39491;BME280;25175;50.140;18.990;2023-04-27T01:58:01;98684.72;;;4.82;52.84
39491;BME280;25175;50.140;18.990;2023-04-27T02:01:08;98677.41;;;4.78;53.29
39491;BME280;25175;50.140;18.990;2023-04-27T02:04:14;98670.28;;;4.72;53.15
39491;BME280;25175;50.140;18.990;2023-04-27T02:07:22;98679.69;;;4.81;53.26
39491;BME280;25175;50.140;18.990;2023-04-27T02:10:30;98681.63;;;4.79;52.56
39491;BME280;25175;50.140;18.990;2023-04-27T02:13:36;98686.19;;;4.77;53.00
39491;BME280;25175;50.140;18.990;2023-04-27T02:16:41;98683.44;;;4.78;52.89
39491;BME280;25175;50.140;18.990;2023-04-27T02:19:47;98668.03;;;4.69;52.84
39491;BME280;25175;50.140;18.990;2023-04-27T02:22:53;98664.28;;;4.63;52.92
39491;BME280;25175;50.140;18.990;2023-04-27T02:26:04;98664.44;;;4.62;53.03
39491;BME280;25175;50.140;18.990;2023-04-27T02:29:12;98674.50;;;4.73;53.16
39491;BME280;25175;50.140;18.990;2023-04-27T02:32:18;98666.72;;;4.65;53.22
39491;BME280;25175;50.140;18.990;2023-04-27T02:35:23;98686.69;;;4.72;53.09
39491;BME280;25175;50.140;18.990;2023-04-27T02:38:30;98672.88;;;4.72;53.31
39491;BME280;25175;50.140;18.990;2023-04-27T02:41:37;98658.28;;;4.63;53.14
39491;BME280;25175;50.140;18.990;2023-04-27T02:44:44;98679.06;;;4.71;53.03
39491;BME280;25175;50.140;18.990;2023-04-27T02:47:49;98678.41;;;4.69;53.20
39491;BME280;25175;50.140;18.990;2023-04-27T02:51:04;98683.94;;;4.66;53.41
39491;BME280;25175;50.140;18.990;2023-04-27T02:54:10;98682.63;;;4.62;53.42
39491;BME280;25175;50.140;18.990;2023-04-27T02:57:19;98673.56;;;4.50;53.68
39491;BME280;25175;50.140;18.990;2023-04-27T03:00:24;98683.63;;;4.53;53.57
39491;BME280;25175;50.140;18.990;2023-04-27T03:03:30;98687.06;;;4.45;53.56
39491;BME280;25175;50.140;18.990;2023-04-27T03:06:35;98689.34;;;4.40;53.32
39491;BME280;25175;50.140;18.990;2023-04-27T03:09:41;98692.44;;;4.36;53.41
39491;BME280;25175;50.140;18.990;2023-04-27T03:12:49;98693.56;;;4.33;53.34
39491;BME280;25175;50.140;18.990;2023-04-27T03:15:57;98691.91;;;4.32;53.50
39491;BME280;25175;50.140;18.990;2023-04-27T03:19:03;98691.44;;;4.29;53.40
39491;BME280;25175;50.140;18.990;2023-04-27T03:22:10;98690.16;;;4.25;53.38
39491;BME280;25175;50.140;18.990;2023-04-27T03:25:16;98705.22;;;4.21;53.62
39491;BME280;25175;50.140;18.990;2023-04-27T03:28:25;98686.72;;;4.08;53.85
39491;BME280;25175;50.140;18.990;2023-04-27T03:31:30;98701.50;;;4.16;53.73
39491;BME280;25175;50.140;18.990;2023-04-27T03:34:36;98672.78;;;4.01;54.06
39491;BME280;25175;50.140;18.990;2023-04-27T03:37:40;98706.41;;;4.19;53.91
39491;BME280;25175;50.140;18.990;2023-04-27T03:40:47;98717.91;;;4.16;54.10
39491;BME280;25175;50.140;18.990;2023-04-27T03:43:55;98653.59;;;3.78;54.26
39491;BME280;25175;50.140;18.990;2023-04-27T03:47:01;98706.84;;;4.14;54.28
39491;BME280;25175;50.140;18.990;2023-04-27T03:50:12;98712.22;;;4.13;54.51
39491;BME280;25175;50.140;18.990;2023-04-27T03:53:24;98703.78;;;4.03;54.73
39491;BME280;25175;50.140;18.990;2023-04-27T03:56:29;98718.88;;;4.15;54.84
39491;BME280;25175;50.140;18.990;2023-04-27T03:59:38;98704.72;;;4.02;54.93
39491;BME280;25175;50.140;18.990;2023-04-27T04:02:43;98688.78;;;3.65;55.19
39491;BME280;25175;50.140;18.990;2023-04-27T04:05:50;98721.66;;;4.14;55.66
39491;BME280;25175;50.140;18.990;2023-04-27T04:08:55;98724.88;;;4.16;55.80
39491;BME280;25175;50.140;18.990;2023-04-27T04:12:01;98733.31;;;4.18;55.58
39491;BME280;25175;50.140;18.990;2023-04-27T04:15:12;98723.91;;;4.17;55.72
39491;BME280;25175;50.140;18.990;2023-04-27T04:18:18;98739.84;;;4.30;55.70
39491;BME280;25175;50.140;18.990;2023-04-27T04:21:23;98737.41;;;4.28;55.69
39491;BME280;25175;50.140;18.990;2023-04-27T04:24:29;98746.81;;;4.29;55.69
39491;BME280;25175;50.140;18.990;2023-04-27T04:27:34;98759.16;;;4.27;55.81
39491;BME280;25175;50.140;18.990;2023-04-27T04:30:43;98753.28;;;4.25;55.59
39491;BME280;25175;50.140;18.990;2023-04-27T04:33:48;98739.81;;;4.14;55.73
39491;BME280;25175;50.140;18.990;2023-04-27T04:36:54;98759.63;;;4.23;55.74
39491;BME280;25175;50.140;18.990;2023-04-27T04:40:07;98755.72;;;4.27;55.66
39491;BME280;25175;50.140;18.990;2023-04-27T04:43:14;98764.66;;;4.24;55.38
39491;BME280;25175;50.140;18.990;2023-04-27T04:46:25;98756.06;;;4.08;55.68
39491;BME280;25175;50.140;18.990;2023-04-27T04:49:32;98781.63;;;3.95;55.33
39491;BME280;25175;50.140;18.990;2023-04-27T04:52:37;98743.19;;;3.90;55.39
39491;BME280;25175;50.140;18.990;2023-04-27T04:55:43;98770.94;;;4.06;55.65
39491;BME280;25175;50.140;18.990;2023-04-27T04:58:50;98785.06;;;4.03;55.43
39491;BME280;25175;50.140;18.990;2023-04-27T05:01:59;98783.09;;;3.97;55.53
39491;BME280;25175;50.140;18.990;2023-04-27T05:05:05;98785.22;;;3.94;55.52
39491;BME280;25175;50.140;18.990;2023-04-27T05:08:14;98781.50;;;3.96;55.88
39491;BME280;25175;50.140;18.990;2023-04-27T05:11:18;98783.59;;;4.01;56.21
39491;BME280;25175;50.140;18.990;2023-04-27T05:14:24;98776.16;;;4.06;56.12
39491;BME280;25175;50.140;18.990;2023-04-27T05:17:49;98784.75;;;4.06;56.15
39491;BME280;25175;50.140;18.990;2023-04-27T05:20:55;98787.50;;;4.13;56.31
39491;BME280;25175;50.140;18.990;2023-04-27T05:24:00;98783.00;;;4.15;56.06
39491;BME280;25175;50.140;18.990;2023-04-27T05:27:06;98790.13;;;4.21;56.72
39491;BME280;25175;50.140;18.990;2023-04-27T05:30:12;98785.28;;;4.26;56.47
39491;BME280;25175;50.140;18.990;2023-04-27T05:33:21;98796.66;;;4.33;56.30
39491;BME280;25175;50.140;18.990;2023-04-27T05:36:26;98770.81;;;4.23;56.80
39491;BME280;25175;50.140;18.990;2023-04-27T05:39:33;98804.78;;;4.54;56.60
39491;BME280;25175;50.140;18.990;2023-04-27T05:42:37;98784.00;;;4.54;56.16
39491;BME280;25175;50.140;18.990;2023-04-27T05:45:48;98801.22;;;4.71;56.32
39491;BME280;25175;50.140;18.990;2023-04-27T05:48:55;98808.03;;;4.80;55.31
39491;BME280;25175;50.140;18.990;2023-04-27T05:52:01;98794.72;;;4.75;55.68
39491;BME280;25175;50.140;18.990;2023-04-27T05:55:14;98806.22;;;4.96;55.62
39491;BME280;25175;50.140;18.990;2023-04-27T05:58:21;98805.56;;;5.02;54.76
39491;BME280;25175;50.140;18.990;2023-04-27T06:01:27;98809.31;;;5.08;54.99
39491;BME280;25175;50.140;18.990;2023-04-27T06:04:35;98810.25;;;5.15;55.02
39491;BME280;25175;50.140;18.990;2023-04-27T06:07:40;98815.75;;;5.28;55.18
39491;BME280;25175;50.140;18.990;2023-04-27T06:10:47;98815.59;;;5.37;54.77
39491;BME280;25175;50.140;18.990;2023-04-27T06:14:04;98822.53;;;5.45;54.28
39491;BME280;25175;50.140;18.990;2023-04-27T06:17:10;98815.53;;;5.53;53.44
39491;BME280;25175;50.140;18.990;2023-04-27T06:20:19;98816.50;;;5.60;52.73
39491;BME280;25175;50.140;18.990;2023-04-27T06:23:24;98814.69;;;5.69;52.87
39491;BME280;25175;50.140;18.990;2023-04-27T06:26:31;98810.91;;;5.79;53.14
39491;BME280;25175;50.140;18.990;2023-04-27T06:29:37;98818.34;;;5.90;52.52
39491;BME280;25175;50.140;18.990;2023-04-27T06:32:42;98816.19;;;6.02;52.54
39491;BME280;25175;50.140;18.990;2023-04-27T06:35:50;98822.00;;;6.12;51.73
39491;BME280;25175;50.140;18.990;2023-04-27T06:38:56;98827.13;;;6.20;51.70
39491;BME280;25175;50.140;18.990;2023-04-27T06:42:02;98826.59;;;6.32;51.76
39491;BME280;25175;50.140;18.990;2023-04-27T06:45:08;98821.13;;;6.42;50.41
39491;BME280;25175;50.140;18.990;2023-04-27T06:48:27;98811.34;;;6.44;50.69
39491;BME280;25175;50.140;18.990;2023-04-27T06:51:35;98824.22;;;6.68;50.29
39491;BME280;25175;50.140;18.990;2023-04-27T06:54:42;98818.41;;;6.80;50.20
39491;BME280;25175;50.140;18.990;2023-04-27T06:57:47;98814.56;;;6.91;49.92
39491;BME280;25175;50.140;18.990;2023-04-27T07:00:53;98810.25;;;6.98;49.48
39491;BME280;25175;50.140;18.990;2023-04-27T07:03:58;98826.06;;;7.19;48.54
39491;BME280;25175;50.140;18.990;2023-04-27T07:07:07;98825.81;;;7.28;48.84
39491;BME280;25175;50.140;18.990;2023-04-27T07:10:12;98825.75;;;7.36;47.54
39491;BME280;25175;50.140;18.990;2023-04-27T07:13:23;98821.41;;;7.43;48.43
39491;BME280;25175;50.140;18.990;2023-04-27T07:16:29;98827.63;;;7.57;47.70
39491;BME280;25175;50.140;18.990;2023-04-27T07:19:36;98837.34;;;7.63;46.29
39491;BME280;25175;50.140;18.990;2023-04-27T07:22:44;98822.56;;;7.70;46.00
39491;BME280;25175;50.140;18.990;2023-04-27T07:25:51;98822.84;;;7.75;46.26
39491;BME280;25175;50.140;18.990;2023-04-27T07:29:04;98824.72;;;7.81;45.36
39491;BME280;25175;50.140;18.990;2023-04-27T07:32:15;98809.78;;;7.75;44.63
39491;BME280;25175;50.140;18.990;2023-04-27T07:39:33;98820.31;;;7.96;43.12
39491;BME280;25175;50.140;18.990;2023-04-27T07:42:38;98825.06;;;8.07;44.58
39491;BME280;25175;50.140;18.990;2023-04-27T07:45:44;98825.75;;;8.15;43.96
39491;BME280;25175;50.140;18.990;2023-04-27T07:48:51;98818.25;;;8.27;43.58
39491;BME280;25175;50.140;18.990;2023-04-27T07:51:57;98818.94;;;8.35;42.19
39491;BME280;25175;50.140;18.990;2023-04-27T07:55:06;98830.63;;;8.39;41.82
39491;BME280;25175;50.140;18.990;2023-04-27T07:58:12;98820.00;;;8.41;41.78
39491;BME280;25175;50.140;18.990;2023-04-27T08:01:20;98822.19;;;8.37;41.48
39491;BME280;25175;50.140;18.990;2023-04-27T08:04:27;98828.59;;;8.35;40.79
39491;BME280;25175;50.140;18.990;2023-04-27T08:07:33;98839.06;;;8.35;41.23
39491;BME280;25175;50.140;18.990;2023-04-27T08:10:41;98840.66;;;8.36;41.61
39491;BME280;25175;50.140;18.990;2023-04-27T08:13:47;98822.50;;;8.28;41.39
39491;BME280;25175;50.140;18.990;2023-04-27T08:16:53;98828.75;;;8.33;40.30
39491;BME280;25175;50.140;18.990;2023-04-27T08:20:00;98836.81;;;8.32;42.23
39491;BME280;25175;50.140;18.990;2023-04-27T08:23:07;98835.81;;;8.33;41.37
39491;BME280;25175;50.140;18.990;2023-04-27T08:26:26;98829.03;;;8.38;41.61
39491;BME280;25175;50.140;18.990;2023-04-27T08:29:35;98832.72;;;8.44;41.14
39491;BME280;25175;50.140;18.990;2023-04-27T08:32:41;98827.63;;;8.57;41.23
39491;BME280;25175;50.140;18.990;2023-04-27T08:35:47;98823.97;;;8.72;40.79
39491;BME280;25175;50.140;18.990;2023-04-27T08:38:55;98828.00;;;8.54;39.44
39491;BME280;25175;50.140;18.990;2023-04-27T08:42:23;98809.25;;;8.71;39.33
39491;BME280;25175;50.140;18.990;2023-04-27T08:45:32;98823.84;;;8.80;39.63
39491;BME280;25175;50.140;18.990;2023-04-27T08:48:37;98823.25;;;8.85;39.53
39491;BME280;25175;50.140;18.990;2023-04-27T08:51:43;98827.94;;;8.89;39.84
39491;BME280;25175;50.140;18.990;2023-04-27T08:54:49;98835.84;;;8.96;40.06
39491;BME280;25175;50.140;18.990;2023-04-27T08:57:59;98828.63;;;8.98;40.00
39491;BME280;25175;50.140;18.990;2023-04-27T09:01:07;98814.22;;;8.87;39.53
39491;BME280;25175;50.140;18.990;2023-04-27T09:04:16;98836.47;;;8.98;38.91
39491;BME280;25175;50.140;18.990;2023-04-27T09:07:21;98829.06;;;9.01;41.28
39491;BME280;25175;50.140;18.990;2023-04-27T09:10:27;98831.72;;;9.08;39.19
39491;BME280;25175;50.140;18.990;2023-04-27T09:17:04;98826.97;;;9.18;37.64
39491;BME280;25175;50.140;18.990;2023-04-27T09:20:10;98831.00;;;9.20;37.45
39491;BME280;25175;50.140;18.990;2023-04-27T09:23:27;98826.19;;;9.24;37.16
39491;BME280;25175;50.140;18.990;2023-04-27T09:26:34;98832.06;;;9.26;37.15
39491;BME280;25175;50.140;18.990;2023-04-27T09:29:44;98815.72;;;9.24;36.69
39491;BME280;25175;50.140;18.990;2023-04-27T09:32:56;98815.69;;;9.17;37.40
39491;BME280;25175;50.140;18.990;2023-04-27T09:36:08;98827.69;;;9.33;36.70
39491;BME280;25175;50.140;18.990;2023-04-27T09:39:17;98826.38;;;9.50;37.01
39491;BME280;25175;50.140;18.990;2023-04-27T09:42:25;98820.22;;;9.64;36.14
39491;BME280;25175;50.140;18.990;2023-04-27T09:45:35;98816.81;;;9.70;35.68
39491;BME280;25175;50.140;18.990;2023-04-27T09:48:42;98813.19;;;9.77;35.85
39491;BME280;25175;50.140;18.990;2023-04-27T09:51:48;98817.09;;;9.81;35.86
39491;BME280;25175;50.140;18.990;2023-04-27T09:55:09;98823.75;;;9.84;36.24
39491;BME280;25175;50.140;18.990;2023-04-27T09:58:42;98823.94;;;9.82;36.49
39491;BME280;25175;50.140;18.990;2023-04-27T10:02:16;98796.22;;;9.67;37.26
39491;BME280;25175;50.140;18.990;2023-04-27T10:06:14;98828.13;;;9.77;37.80
39491;BME280;25175;50.140;18.990;2023-04-27T10:09:47;98826.84;;;9.66;37.53
39491;BME280;25175;50.140;18.990;2023-04-27T10:13:00;98828.22;;;9.56;37.44
39491;BME280;25175;50.140;18.990;2023-04-27T10:16:20;98818.31;;;9.51;37.96
39491;BME280;25175;50.140;18.990;2023-04-27T10:19:56;98828.75;;;9.45;37.77
39491;BME280;25175;50.140;18.990;2023-04-27T10:23:07;98828.75;;;9.45;38.48
39491;BME280;25175;50.140;18.990;2023-04-27T10:26:15;98834.75;;;9.39;37.76
39491;BME280;25175;50.140;18.990;2023-04-27T10:32:55;98822.84;;;9.36;38.50
39491;BME280;25175;50.140;18.990;2023-04-27T10:36:13;98814.22;;;9.42;38.59
39491;BME280;25175;50.140;18.990;2023-04-27T10:39:20;98816.44;;;9.39;37.61
39491;BME280;25175;50.140;18.990;2023-04-27T10:42:36;98824.34;;;9.45;38.02
39491;BME280;25175;50.140;18.990;2023-04-27T10:45:45;98814.69;;;9.52;38.96
39491;BME280;25175;50.140;18.990;2023-04-27T10:48:51;98830.53;;;9.72;39.05
39491;BME280;25175;50.140;18.990;2023-04-27T10:51:59;98824.41;;;9.86;37.96
39491;BME280;25175;50.140;18.990;2023-04-27T10:55:21;98824.03;;;9.95;37.17
39491;BME280;25175;50.140;18.990;2023-04-27T10:58:27;98824.47;;;10.05;37.93
39491;BME280;25175;50.140;18.990;2023-04-27T11:01:33;98827.09;;;10.12;37.11
39491;BME280;25175;50.140;18.990;2023-04-27T11:04:43;98830.34;;;10.20;36.58
39491;BME280;25175;50.140;18.990;2023-04-27T11:08:03;98829.38;;;10.28;35.52
39491;BME280;25175;50.140;18.990;2023-04-27T11:11:14;98829.81;;;10.38;36.09
39491;BME280;25175;50.140;18.990;2023-04-27T11:14:20;98825.78;;;10.42;34.84
39491;BME280;25175;50.140;18.990;2023-04-27T11:17:29;98838.69;;;10.37;35.05
39491;BME280;25175;50.140;18.990;2023-04-27T11:20:36;98832.41;;;10.31;35.27
39491;BME280;25175;50.140;18.990;2023-04-27T11:23:47;98836.22;;;10.22;34.59
39491;BME280;25175;50.140;18.990;2023-04-27T11:26:53;98830.16;;;10.22;35.06
39491;BME280;25175;50.140;18.990;2023-04-27T11:29:58;98830.00;;;10.30;35.20
39491;BME280;25175;50.140;18.990;2023-04-27T11:33:07;98823.34;;;10.34;35.29
39491;BME280;25175;50.140;18.990;2023-04-27T11:36:20;98828.81;;;10.39;34.63
39491;BME280;25175;50.140;18.990;2023-04-27T11:39:33;98823.16;;;10.42;34.23
39491;BME280;25175;50.140;18.990;2023-04-27T11:42:56;98820.75;;;10.40;33.67
39491;BME280;25175;50.140;18.990;2023-04-27T11:46:05;98837.31;;;10.54;35.27
39491;BME280;25175;50.140;18.990;2023-04-27T11:52:49;98834.50;;;10.62;35.17
39491;BME280;25175;50.140;18.990;2023-04-27T11:56:06;98829.25;;;10.68;35.74
39491;BME280;25175;50.140;18.990;2023-04-27T11:59:29;98832.50;;;10.70;35.32
39491;BME280;25175;50.140;18.990;2023-04-27T12:02:36;98837.34;;;10.73;35.68
39491;BME280;25175;50.140;18.990;2023-04-27T12:05:47;98829.06;;;10.76;35.05
39491;BME280;25175;50.140;18.990;2023-04-27T12:08:54;98834.53;;;10.75;35.59
39491;BME280;25175;50.140;18.990;2023-04-27T12:12:04;98833.91;;;10.66;34.38
39491;BME280;25175;50.140;18.990;2023-04-27T12:15:12;98833.69;;;10.61;34.89
39491;BME280;25175;50.140;18.990;2023-04-27T12:18:18;98830.09;;;10.69;35.70
39491;BME280;25175;50.140;18.990;2023-04-27T12:21:24;98821.59;;;10.67;35.06
39491;BME280;25175;50.140;18.990;2023-04-27T12:24:32;98838.34;;;10.79;35.19
39491;BME280;25175;50.140;18.990;2023-04-27T12:27:41;98825.66;;;10.76;34.02
39491;BME280;25175;50.140;18.990;2023-04-27T12:30:49;98833.53;;;10.76;34.58
39491;BME280;25175;50.140;18.990;2023-04-27T12:33:56;98834.13;;;10.71;33.50
39491;BME280;25175;50.140;18.990;2023-04-27T12:37:01;98831.06;;;10.68;32.88
39491;BME280;25175;50.140;18.990;2023-04-27T12:40:09;98824.41;;;10.65;33.94
39491;BME280;25175;50.140;18.990;2023-04-27T12:43:17;98807.03;;;10.51;33.27
39491;BME280;25175;50.140;18.990;2023-04-27T12:46:23;98828.88;;;10.65;35.48
39491;BME280;25175;50.140;18.990;2023-04-27T12:49:28;98825.44;;;10.71;34.08
39491;BME280;25175;50.140;18.990;2023-04-27T12:52:34;98819.59;;;10.82;34.63
39491;BME280;25175;50.140;18.990;2023-04-27T12:55:40;98811.91;;;10.87;33.81
39491;BME280;25175;50.140;18.990;2023-04-27T12:58:50;98830.34;;;10.93;33.38
39491;BME280;25175;50.140;18.990;2023-04-27T13:01:59;98805.25;;;10.84;33.37
39491;BME280;25175;50.140;18.990;2023-04-27T13:05:38;98824.03;;;10.88;34.16
39491;BME280;25175;50.140;18.990;2023-04-27T13:08:34;98814.13;;;10.77;34.39
39491;BME280;25175;50.140;18.990;2023-04-27T13:11:42;98821.22;;;10.89;34.38
39491;BME280;25175;50.140;18.990;2023-04-27T13:14:56;98817.00;;;10.95;34.63
39491;BME280;25175;50.140;18.990;2023-04-27T13:18:03;98818.63;;;10.96;35.95
39491;BME280;25175;50.140;18.990;2023-04-27T13:21:09;98818.81;;;11.01;34.90
39491;BME280;25175;50.140;18.990;2023-04-27T13:24:28;98821.03;;;11.04;35.07
39491;BME280;25175;50.140;18.990;2023-04-27T13:27:33;98807.50;;;11.00;34.50
39491;BME280;25175;50.140;18.990;2023-04-27T13:30:45;98805.09;;;10.99;34.54
39491;BME280;25175;50.140;18.990;2023-04-27T13:33:50;98811.16;;;11.19;35.70
39491;BME280;25175;50.140;18.990;2023-04-27T13:36:58;98814.75;;;11.24;34.01
39491;BME280;25175;50.140;18.990;2023-04-27T13:40:06;98817.38;;;11.24;34.06
39491;BME280;25175;50.140;18.990;2023-04-27T13:43:28;98811.53;;;11.22;34.24
39491;BME280;25175;50.140;18.990;2023-04-27T13:46:37;98800.44;;;11.14;33.13
39491;BME280;25175;50.140;18.990;2023-04-27T13:49:43;98812.13;;;11.18;33.60
39491;BME280;25175;50.140;18.990;2023-04-27T13:53:10;98811.53;;;11.16;34.12
39491;BME280;25175;50.140;18.990;2023-04-27T13:56:17;98809.94;;;11.15;34.68
39491;BME280;25175;50.140;18.990;2023-04-27T13:59:31;98825.69;;;11.15;34.90
39491;BME280;25175;50.140;18.990;2023-04-27T14:02:41;98810.53;;;11.04;34.57
39491;BME280;25175;50.140;18.990;2023-04-27T14:05:47;98815.19;;;11.15;34.65
39491;BME280;25175;50.140;18.990;2023-04-27T14:08:53;98821.22;;;11.22;34.13
39491;BME280;25175;50.140;18.990;2023-04-27T14:12:05;98823.84;;;11.22;34.11
39491;BME280;25175;50.140;18.990;2023-04-27T14:15:37;98821.41;;;11.20;33.93
39491;BME280;25175;50.140;18.990;2023-04-27T14:18:45;98829.72;;;11.17;34.28
39491;BME280;25175;50.140;18.990;2023-04-27T14:21:56;98831.94;;;11.14;33.42
39491;BME280;25175;50.140;18.990;2023-04-27T14:25:05;98840.84;;;11.06;33.67
39491;BME280;25175;50.140;18.990;2023-04-27T14:28:12;98846.72;;;11.02;34.16
39491;BME280;25175;50.140;18.990;2023-04-27T14:31:18;98850.31;;;11.01;34.13
39491;BME280;25175;50.140;18.990;2023-04-27T14:34:28;98848.91;;;10.98;33.63
39491;BME280;25175;50.140;18.990;2023-04-27T14:37:34;98837.41;;;10.99;34.14
39491;BME280;25175;50.140;18.990;2023-04-27T14:40:42;98843.25;;;11.01;33.81
39491;BME280;25175;50.140;18.990;2023-04-27T14:43:48;98841.03;;;11.05;32.98
39491;BME280;25175;50.140;18.990;2023-04-27T14:46:53;98833.75;;;11.13;33.06
39491;BME280;25175;50.140;18.990;2023-04-27T14:50:01;98838.81;;;11.21;33.04
39491;BME280;25175;50.140;18.990;2023-04-27T14:53:15;98829.50;;;11.25;31.85
39491;BME280;25175;50.140;18.990;2023-04-27T14:56:23;98842.25;;;11.22;31.91
39491;BME280;25175;50.140;18.990;2023-04-27T14:59:29;98839.03;;;11.20;32.59
39491;BME280;25175;50.140;18.990;2023-04-27T15:02:34;98877.00;;;11.24;33.17
39491;BME280;25175;50.140;18.990;2023-04-27T15:05:43;98842.25;;;11.22;33.37
39491;BME280;25175;50.140;18.990;2023-04-27T15:08:50;98842.84;;;11.17;33.30
39491;BME280;25175;50.140;18.990;2023-04-27T15:11:56;98853.78;;;11.08;33.32
39491;BME280;25175;50.140;18.990;2023-04-27T15:15:04;98828.91;;;10.91;33.39
39491;BME280;25175;50.140;18.990;2023-04-27T15:18:13;98852.16;;;11.00;33.78
39491;BME280;25175;50.140;18.990;2023-04-27T15:21:32;98840.81;;;10.87;33.38
39491;BME280;25175;50.140;18.990;2023-04-27T15:24:38;98854.75;;;10.94;33.78
39491;BME280;25175;50.140;18.990;2023-04-27T15:27:43;98856.56;;;10.87;33.45
39491;BME280;25175;50.140;18.990;2023-04-27T15:30:51;98858.59;;;10.85;33.62
39491;BME280;25175;50.140;18.990;2023-04-27T15:34:00;98867.03;;;10.80;33.13
39491;BME280;25175;50.140;18.990;2023-04-27T15:37:09;98852.91;;;10.81;33.70
39491;BME280;25175;50.140;18.990;2023-04-27T15:40:15;98851.09;;;10.82;33.54
39491;BME280;25175;50.140;18.990;2023-04-27T15:43:21;98623.44;;;9.39;34.27
39491;BME280;25175;50.140;18.990;2023-04-27T15:46:27;98849.66;;;10.79;33.65
39491;BME280;25175;50.140;18.990;2023-04-27T15:49:34;98862.59;;;10.74;33.65
39491;BME280;25175;50.140;18.990;2023-04-27T15:52:45;98847.84;;;10.73;34.13
39491;BME280;25175;50.140;18.990;2023-04-27T15:56:12;98863.38;;;10.68;34.20
39491;BME280;25175;50.140;18.990;2023-04-27T15:59:19;98860.16;;;10.73;34.58
39491;BME280;25175;50.140;18.990;2023-04-27T16:02:26;98839.38;;;10.71;35.24
39491;BME280;25175;50.140;18.990;2023-04-27T16:05:31;98794.94;;;10.50;34.38
39491;BME280;25175;50.140;18.990;2023-04-27T16:08:40;98857.97;;;10.89;34.49
39491;BME280;25175;50.140;18.990;2023-04-27T16:11:45;98856.13;;;10.90;34.09
39491;BME280;25175;50.140;18.990;2023-04-27T16:14:57;98856.34;;;10.82;33.87
39491;BME280;25175;50.140;18.990;2023-04-27T16:18:02;98872.06;;;10.75;33.97
39491;BME280;25175;50.140;18.990;2023-04-27T16:21:14;98867.03;;;10.74;34.58
39491;BME280;25175;50.140;18.990;2023-04-27T16:24:23;98855.91;;;10.72;34.08
39491;BME280;25175;50.140;18.990;2023-04-27T16:27:30;98863.75;;;10.65;34.48
39491;BME280;25175;50.140;18.990;2023-04-27T16:30:36;98861.97;;;10.66;34.88
39491;BME280;25175;50.140;18.990;2023-04-27T16:33:42;98867.63;;;10.63;34.71
39491;BME280;25175;50.140;18.990;2023-04-27T16:36:50;98864.38;;;10.61;34.91
39491;BME280;25175;50.140;18.990;2023-04-27T16:39:59;98876.28;;;10.63;35.17
39491;BME280;25175;50.140;18.990;2023-04-27T16:43:23;98870.84;;;10.65;35.23
39491;BME280;25175;50.140;18.990;2023-04-27T16:46:29;98870.25;;;10.63;35.17
39491;BME280;25175;50.140;18.990;2023-04-27T16:49:34;98870.22;;;10.56;35.44
39491;BME280;25175;50.140;18.990;2023-04-27T16:52:43;98881.72;;;10.49;35.29